Time;durP1;ratioP1;P1;durP2;ratioP2;P2;SDS_P1;SDS_P2;PMS_P1;PMS_P2;Temp;Humidity;BMP_temperature;BMP_pressure;BME280_temperature;BME280_humidity;BME280_pressure;Samples;Min_cycle;Max_cycle;Signal;HPM_P1;HPM_P2
2023/05/14 00:01:28;;;;;;;6.28;3.78;;;;;;;12.87;79.81;101701.59;6279453;28;20053;-70
2023/05/14 00:04:29;;;;;;;8.98;3.67;;;;;;;12.83;78.98;101700.88;6279123;28;20060;-70
2023/05/14 00:07:30;;;;;;;6.05;3.20;;;;;;;12.82;79.72;101696.53;6279261;28;20045;-70
2023/05/14 00:10:33;;;;;;;8.43;3.63;;;;;;;12.74;78.31;101693.41;6278870;28;20429;-70
2023/05/14 00:13:34;;;;;;;6.97;3.67;;;;;;;12.74;80.58;101698.69;6278869;28;20045;-70
2023/05/14 00:16:35;;;;;;;4.85;3.00;;;;;;;12.74;80.21;101688.13;6270728;28;20041;-70
2023/05/14 00:19:40;;;;;;;6.25;3.75;;;;;;;12.64;79.97;101700.91;6274308;28;20469;-70
2023/05/14 00:22:42;;;;;;;5.82;3.70;;;;;;;12.61;80.89;101701.03;6274351;28;20135;-70
2023/05/14 00:25:45;;;;;;;4.32;3.13;;;;;;;12.56;80.58;101695.13;6273797;28;20046;-70
2023/05/14 00:28:46;;;;;;;6.40;3.25;;;;;;;12.55;80.84;101695.22;6254855;28;20131;-70
2023/05/14 00:31:47;;;;;;;5.35;3.15;;;;;;;12.51;80.82;101686.56;6262449;28;20049;-70
2023/05/14 00:34:49;;;;;;;9.40;3.72;;;;;;;12.45;78.93;101681.59;6275990;28;20049;-70
2023/05/14 00:37:50;;;;;;;5.47;3.80;;;;;;;12.43;78.32;101675.53;6278190;28;20049;-70
2023/05/14 00:40:53;;;;;;;7.65;3.70;;;;;;;12.43;78.20;101683.44;6278447;28;20055;-70
2023/05/14 00:43:54;;;;;;;5.20;3.28;;;;;;;12.42;79.20;101681.72;6278278;28;20060;-70
2023/05/14 00:46:56;;;;;;;6.07;3.47;;;;;;;12.30;79.50;101677.84;6278094;28;20055;-70
2023/05/14 00:49:57;;;;;;;4.45;2.50;;;;;;;12.31;79.05;101678.72;6270591;28;20481;-70
2023/05/14 00:52:58;;;;;;;8.63;3.42;;;;;;;12.25;80.46;101679.00;6276071;28;20048;-70
2023/05/14 00:56:02;;;;;;;4.40;3.10;;;;;;;12.17;81.98;101674.06;6278045;28;20049;-70
2023/05/14 00:59:03;;;;;;;6.22;3.15;;;;;;;12.17;83.88;101679.34;6277625;28;20041;-70
2023/05/14 01:02:05;;;;;;;7.53;3.28;;;;;;;12.11;83.02;101677.00;6278055;28;20056;-70
2023/05/14 01:05:07;;;;;;;5.43;3.28;;;;;;;12.08;83.59;101674.47;6277692;28;20053;-70
2023/05/14 01:08:17;;;;;;;4.93;3.38;;;;;;;11.97;83.90;101671.47;6260511;28;20048;-70
2023/05/14 01:11:26;;;;;;;5.82;3.13;;;;;;;11.91;84.11;101669.97;6276995;28;20052;-70
2023/05/14 01:14:33;;;;;;;4.18;3.15;;;;;;;11.98;84.90;101666.13;6277391;28;20052;-70
2023/05/14 01:17:41;;;;;;;5.55;3.63;;;;;;;11.98;85.68;101662.66;6277416;28;20052;-70
2023/05/14 01:20:43;;;;;;;5.57;3.75;;;;;;;12.01;86.40;101673.91;6271969;28;20060;-70
2023/05/14 01:23:45;;;;;;;6.13;4.05;;;;;;;11.98;85.48;101681.94;6277156;28;20052;-70
2023/05/14 01:26:47;;;;;;;5.82;2.92;;;;;;;12.01;86.30;101675.69;6276916;28;20372;-70
2023/05/14 01:29:53;;;;;;;6.50;3.53;;;;;;;12.01;86.25;101670.44;6276966;28;20052;-70
2023/05/14 01:32:58;;;;;;;8.57;3.55;;;;;;;11.97;87.31;101680.25;6277415;28;20049;-70
2023/05/14 01:36:00;;;;;;;5.85;3.42;;;;;;;12.01;87.44;101667.78;6277017;28;20136;-70
2023/05/14 01:39:03;;;;;;;8.90;4.40;;;;;;;11.95;86.66;101670.72;6276709;28;20045;-70
2023/05/14 01:42:06;;;;;;;8.55;3.97;;;;;;;11.89;85.94;101672.66;6263830;28;20071;-70
2023/05/14 01:45:08;;;;;;;7.78;3.70;;;;;;;11.87;86.85;101673.66;6246687;28;20049;-70
2023/05/14 01:48:10;;;;;;;10.40;3.38;;;;;;;11.84;87.51;101677.28;6258554;28;20053;-70
2023/05/14 01:51:13;;;;;;;6.57;4.05;;;;;;;11.79;87.34;101670.47;6248594;28;20072;-70
2023/05/14 01:54:16;;;;;;;5.75;3.35;;;;;;;11.74;88.48;101670.69;6252582;28;20053;-70
2023/05/14 01:57:17;;;;;;;5.18;3.33;;;;;;;11.70;88.31;101671.72;6276459;28;20057;-70
2023/05/14 02:00:18;;;;;;;5.45;3.58;;;;;;;11.66;87.75;101672.78;6276205;28;20045;-70
2023/05/14 02:03:20;;;;;;;9.07;3.42;;;;;;;11.67;88.35;101666.59;6256447;28;20061;-70
2023/05/14 02:06:21;;;;;;;8.57;3.75;;;;;;;11.62;88.92;101669.41;6269576;28;20136;-70
2023/05/14 02:09:24;;;;;;;5.57;3.60;;;;;;;11.56;88.38;101667.06;6273996;28;20049;-70
2023/05/14 02:12:26;;;;;;;7.10;3.67;;;;;;;11.54;89.42;101665.44;6259720;28;20144;-70
2023/05/14 02:15:27;;;;;;;7.70;3.75;;;;;;;11.53;90.20;101667.19;6230708;28;20046;-70
2023/05/14 02:18:28;;;;;;;6.38;3.97;;;;;;;11.60;90.34;101665.16;6258748;28;20057;-70
2023/05/14 02:21:30;;;;;;;7.65;3.35;;;;;;;11.63;90.02;101659.78;6262208;28;20327;-70
2023/05/14 02:24:33;;;;;;;3.97;3.20;;;;;;;11.69;89.92;101656.84;6258290;28;20037;-70
2023/05/14 02:27:34;;;;;;;6.20;3.63;;;;;;;11.62;91.06;101655.41;6275773;28;20044;-70
2023/05/14 02:30:36;;;;;;;5.85;3.75;;;;;;;11.58;92.16;101652.06;6275828;28;20049;-71
2023/05/14 02:33:37;;;;;;;7.75;4.22;;;;;;;11.52;93.28;101648.81;6275728;28;20041;-70
2023/05/14 02:36:38;;;;;;;5.07;3.95;;;;;;;11.49;93.47;101649.84;6275794;28;20041;-70
2023/05/14 02:39:41;;;;;;;6.95;3.60;;;;;;;11.47;93.31;101645.53;6275490;28;20056;-70
2023/05/14 02:42:42;;;;;;;7.07;3.60;;;;;;;11.51;94.20;101636.59;6262615;28;20434;-70
2023/05/14 02:45:44;;;;;;;6.75;3.60;;;;;;;11.54;94.08;101645.22;6272091;28;20049;-70
2023/05/14 02:48:45;;;;;;;5.80;3.70;;;;;;;11.51;94.61;101647.13;6265689;28;20049;-71
2023/05/14 02:51:46;;;;;;;4.15;3.50;;;;;;;11.47;95.64;101646.38;6273798;28;20059;-70
2023/05/14 02:54:49;;;;;;;4.60;3.42;;;;;;;11.46;96.56;101643.84;6275340;28;20469;-70
2023/05/14 02:57:52;;;;;;;7.53;4.03;;;;;;;11.40;96.93;101640.53;6262373;28;20056;-70
2023/05/14 03:00:53;;;;;;;10.88;4.05;;;;;;;11.41;96.65;101647.50;6256485;28;20060;-69
2023/05/14 03:03:54;;;;;;;8.48;3.47;;;;;;;11.41;97.37;101644.03;6271248;28;20049;-70
2023/05/14 03:06:56;;;;;;;5.93;3.83;;;;;;;11.38;97.50;101639.75;6235759;28;20041;-70
2023/05/14 03:09:59;;;;;;;6.03;3.90;;;;;;;11.38;97.59;101642.38;6244759;28;20046;-70
2023/05/14 03:13:00;;;;;;;6.18;3.65;;;;;;;11.42;99.01;101641.31;6244653;28;20045;-70
2023/05/14 03:16:02;;;;;;;5.88;3.47;;;;;;;11.44;98.80;101633.34;6226858;28;20503;-70
2023/05/14 03:19:03;;;;;;;6.88;3.67;;;;;;;11.41;99.51;101634.34;6223442;28;20045;-70
2023/05/14 03:22:04;;;;;;;5.43;3.22;;;;;;;11.38;99.63;101639.75;6244178;28;20689;-70
2023/05/14 03:25:08;;;;;;;10.63;3.95;;;;;;;11.35;100.00;101642.50;6233443;28;20446;-70
2023/05/14 03:28:09;;;;;;;5.60;3.67;;;;;;;11.34;100.00;101638.16;6244150;28;20060;-69
2023/05/14 03:31:11;;;;;;;5.20;3.60;;;;;;;11.32;100.00;101636.53;6253163;28;20088;-70
2023/05/14 03:34:12;;;;;;;5.30;3.63;;;;;;;11.36;100.00;101635.47;6251985;28;20052;-70
2023/05/14 03:37:13;;;;;;;5.60;3.28;;;;;;;11.36;100.00;101633.69;6244905;28;20466;-70
2023/05/14 03:40:16;;;;;;;4.63;3.38;;;;;;;11.34;100.00;101637.31;6236511;28;20065;-70
2023/05/14 03:43:17;;;;;;;5.18;3.67;;;;;;;11.27;100.00;101631.47;6252731;28;20049;-70
2023/05/14 03:46:19;;;;;;;4.40;3.03;;;;;;;11.28;100.00;101634.94;6241715;28;20041;-70
2023/05/14 03:49:20;;;;;;;5.80;3.70;;;;;;;11.25;100.00;101633.28;6232821;28;20047;-69
2023/05/14 03:52:21;;;;;;;6.65;3.88;;;;;;;11.21;100.00;101630.84;6228891;28;20045;-69
2023/05/14 03:55:24;;;;;;;6.55;3.95;;;;;;;11.17;100.00;101633.63;6238367;28;20045;-69
2023/05/14 03:58:26;;;;;;;7.47;3.80;;;;;;;11.16;100.00;101631.88;6251951;28;20045;-69
2023/05/14 04:01:27;;;;;;;5.63;4.10;;;;;;;11.18;100.00;101626.56;6252852;28;20052;-69
2023/05/14 04:04:28;;;;;;;6.55;3.65;;;;;;;11.16;100.00;101631.03;6251576;28;20061;-70
2023/05/14 04:07:30;;;;;;;5.75;3.60;;;;;;;11.14;100.00;101627.63;6252811;28;20566;-69
2023/05/14 04:10:32;;;;;;;5.35;3.55;;;;;;;11.20;100.00;101634.41;6253537;28;20041;-69
2023/05/14 04:13:34;;;;;;;4.95;3.53;;;;;;;11.21;100.00;101633.47;6260156;28;20441;-70
2023/05/14 04:16:35;;;;;;;4.68;3.42;;;;;;;11.24;100.00;101638.63;6270268;28;20362;-70
2023/05/14 04:19:36;;;;;;;6.70;3.85;;;;;;;11.27;100.00;101639.34;6269677;28;20056;-70
2023/05/14 04:22:38;;;;;;;6.43;3.47;;;;;;;11.27;100.00;101634.09;6274253;28;20061;-70
2023/05/14 04:25:40;;;;;;;5.05;3.33;;;;;;;11.31;100.00;101637.41;6274552;28;20349;-70
2023/05/14 04:28:42;;;;;;;7.57;3.63;;;;;;;11.36;100.00;101638.09;6278316;28;20049;-70
2023/05/14 04:31:44;;;;;;;6.32;3.10;;;;;;;11.38;100.00;101636.25;6278549;28;20357;-70
2023/05/14 04:34:46;;;;;;;9.05;4.10;;;;;;;11.42;100.00;101632.56;6278578;28;20045;-70
2023/05/14 04:37:48;;;;;;;6.05;3.33;;;;;;;11.49;100.00;101641.03;6278536;28;20126;-70
2023/05/14 04:40:51;;;;;;;6.35;3.58;;;;;;;11.47;100.00;101638.50;6278275;28;20128;-70
2023/05/14 04:43:55;;;;;;;3.58;2.92;;;;;;;11.53;100.00;101642.63;6278510;28;20049;-70
2023/05/14 04:46:57;;;;;;;4.90;3.35;;;;;;;11.55;100.00;101653.97;6275110;28;20045;-70
2023/05/14 04:49:58;;;;;;;4.25;2.90;;;;;;;11.64;100.00;101653.56;6278158;28;20068;-70
2023/05/14 04:52:59;;;;;;;5.38;3.30;;;;;;;11.71;100.00;101647.09;6278196;28;20051;-70
2023/05/14 04:56:02;;;;;;;7.57;3.80;;;;;;;11.70;100.00;101640.13;6277864;28;20045;-70
2023/05/14 04:59:03;;;;;;;4.18;2.85;;;;;;;11.78;100.00;101647.72;6277859;28;20055;-70
2023/05/14 05:02:05;;;;;;;4.65;3.05;;;;;;;11.88;100.00;101652.53;6277842;28;20060;-71
2023/05/14 05:05:07;;;;;;;4.70;3.42;;;;;;;11.85;100.00;101657.06;6265411;28;20053;-70
2023/05/14 05:08:10;;;;;;;5.25;3.30;;;;;;;11.93;100.00;101647.06;6245669;28;20053;-70
2023/05/14 05:11:12;;;;;;;3.97;2.78;;;;;;;12.01;100.00;101646.72;6245273;28;20358;-70
2023/05/14 05:14:14;;;;;;;4.68;2.95;;;;;;;12.10;100.00;101656.84;6277372;28;20102;-70
2023/05/14 05:17:15;;;;;;;6.90;4.00;;;;;;;12.06;100.00;101648.22;6262620;28;20044;-70
2023/05/14 05:20:17;;;;;;;6.30;3.63;;;;;;;12.13;100.00;101656.72;6253173;28;20087;-70
2023/05/14 05:23:18;;;;;;;5.25;3.33;;;;;;;12.17;100.00;101655.63;6256417;28;20132;-70
2023/05/14 05:26:21;;;;;;;4.43;3.13;;;;;;;12.22;100.00;101651.03;6257082;28;20056;-70
2023/05/14 05:29:23;;;;;;;4.10;2.45;;;;;;;12.27;100.00;101653.44;6258549;28;20127;-70
2023/05/14 05:32:24;;;;;;;3.83;2.63;;;;;;;12.31;100.00;101658.50;6256994;28;20041;-70
2023/05/14 05:35:26;;;;;;;7.15;3.25;;;;;;;12.33;100.00;101653.16;6276609;28;20045;-70
2023/05/14 05:38:27;;;;;;;3.28;2.72;;;;;;;12.43;100.00;101654.44;6251339;28;20045;-70
2023/05/14 05:41:30;;;;;;;4.45;3.10;;;;;;;12.51;100.00;101649.66;6254788;28;20049;-70
2023/05/14 05:44:31;;;;;;;7.05;3.30;;;;;;;12.50;100.00;101655.03;6253385;28;20060;-70
2023/05/14 05:47:32;;;;;;;4.85;3.13;;;;;;;12.58;100.00;101651.09;6251947;28;20042;-69
2023/05/14 05:50:34;;;;;;;4.70;3.00;;;;;;;12.63;100.00;101649.09;6255444;28;20048;-70
2023/05/14 05:53:35;;;;;;;4.82;3.00;;;;;;;12.68;100.00;101651.50;6267981;28;20052;-70
2023/05/14 05:56:38;;;;;;;5.15;2.92;;;;;;;12.67;100.00;101653.31;6251936;28;20048;-70
2023/05/14 05:59:39;;;;;;;6.60;2.90;;;;;;;12.71;100.00;101656.63;6270280;28;20051;-70
2023/05/14 06:02:41;;;;;;;6.32;3.10;;;;;;;12.79;100.00;101646.56;6269061;28;20052;-70
2023/05/14 06:05:42;;;;;;;4.72;3.00;;;;;;;12.83;100.00;101653.41;6255400;28;20052;-70
2023/05/14 06:08:44;;;;;;;6.43;3.33;;;;;;;12.89;100.00;101652.25;6254849;28;20051;-70
2023/05/14 06:11:46;;;;;;;4.03;2.60;;;;;;;12.93;100.00;101657.31;6257329;28;20056;-70
2023/05/14 06:14:48;;;;;;;4.72;2.97;;;;;;;13.00;100.00;101649.97;6264789;28;20048;-70
2023/05/14 06:17:49;;;;;;;3.03;2.45;;;;;;;13.06;100.00;101648.78;6274044;28;20049;-70
2023/05/14 06:20:50;;;;;;;4.63;3.03;;;;;;;13.14;100.00;101652.78;6275924;28;20056;-70
2023/05/14 06:23:52;;;;;;;5.20;2.70;;;;;;;13.24;100.00;101647.91;6275923;28;20444;-70
2023/05/14 06:26:54;;;;;;;5.32;2.30;;;;;;;13.27;100.00;101655.69;6275838;28;20045;-70
2023/05/14 06:29:56;;;;;;;2.75;1.88;;;;;;;13.32;100.00;101651.03;6275525;28;20045;-70
2023/05/14 06:32:57;;;;;;;3.88;2.45;;;;;;;13.44;100.00;101657.47;6275877;28;20071;-70
2023/05/14 06:35:59;;;;;;;4.47;2.35;;;;;;;13.50;100.00;101651.03;6275536;28;20053;-70
2023/05/14 06:39:01;;;;;;;5.28;2.45;;;;;;;13.60;100.00;101654.91;6275528;28;20052;-70
2023/05/14 06:42:04;;;;;;;3.47;2.13;;;;;;;13.65;100.00;101658.16;6275578;28;20049;-70
2023/05/14 06:45:06;;;;;;;5.50;2.47;;;;;;;13.65;100.00;101656.38;6271266;28;20048;-70
2023/05/14 06:48:08;;;;;;;3.20;2.08;;;;;;;13.70;100.00;101654.34;6274692;28;20051;-70
2023/05/14 06:51:12;;;;;;;3.80;2.33;;;;;;;13.75;100.00;101646.16;6259114;28;20373;-70
2023/05/14 06:54:13;;;;;;;3.20;2.38;;;;;;;13.84;100.00;101650.13;6275258;28;20453;-70
2023/05/14 06:57:16;;;;;;;2.88;1.98;;;;;;;13.92;100.00;101646.16;6263659;28;20041;-70
2023/05/14 07:00:18;;;;;;;2.70;1.90;;;;;;;14.01;100.00;101652.72;6258551;28;20052;-70
2023/05/14 07:03:20;;;;;;;4.97;2.28;;;;;;;14.09;100.00;101637.31;6260193;28;20365;-70
2023/05/14 07:06:22;;;;;;;2.50;1.75;;;;;;;14.19;100.00;101640.31;6271414;28;20069;-70
2023/05/14 07:09:24;;;;;;;4.25;2.40;;;;;;;14.31;98.25;101623.81;6243944;28;20051;-70
2023/05/14 07:12:27;;;;;;;3.58;2.10;;;;;;;14.42;94.03;101631.13;6269030;28;20182;-70
2023/05/14 07:15:28;;;;;;;3.28;2.20;;;;;;;14.50;92.21;101626.31;6267544;28;20179;-71
2023/05/14 07:18:29;;;;;;;2.47;1.85;;;;;;;14.58;95.11;101636.44;6256194;28;20065;-70
2023/05/14 07:21:31;;;;;;;5.95;2.42;;;;;;;14.62;91.93;101622.97;6261671;28;20048;-70
2023/05/14 07:24:33;;;;;;;4.03;2.05;;;;;;;14.68;90.73;101620.00;6260303;28;20045;-70
2023/05/14 07:27:35;;;;;;;4.13;2.45;;;;;;;14.80;91.14;101612.28;6269798;28;20052;-70
2023/05/14 07:30:37;;;;;;;3.80;2.47;;;;;;;14.83;88.54;101618.25;6265010;28;20468;-70
2023/05/14 07:33:38;;;;;;;4.18;2.10;;;;;;;14.92;89.32;101615.06;6250432;28;20056;-70
2023/05/14 07:36:40;;;;;;;3.35;2.25;;;;;;;14.87;89.11;101614.50;6255235;28;20052;-70
2023/05/14 07:39:41;;;;;;;2.80;2.28;;;;;;;14.95;86.62;101609.63;6254816;28;20059;-70
2023/05/14 07:42:43;;;;;;;5.72;2.05;;;;;;;15.02;87.07;101604.81;6252184;28;20362;-70
2023/05/14 07:45:45;;;;;;;5.13;2.38;;;;;;;15.09;84.98;101595.56;6250898;28;20049;-70
2023/05/14 07:48:46;;;;;;;2.90;2.13;;;;;;;15.14;84.34;101596.16;6262130;28;20064;-70
2023/05/14 07:51:48;;;;;;;5.43;2.38;;;;;;;15.18;83.00;101602.97;6274473;28;20053;-70
2023/05/14 07:54:50;;;;;;;2.40;2.00;;;;;;;15.26;82.25;101601.66;6249587;28;20053;-70
2023/05/14 07:57:54;;;;;;;4.32;2.13;;;;;;;15.33;82.74;101595.06;6248742;28;20049;-71
2023/05/14 08:00:56;;;;;;;3.28;2.20;;;;;;;15.35;84.98;101598.47;6256645;28;20053;-69
2023/05/14 08:03:57;;;;;;;2.58;1.98;;;;;;;15.41;82.08;101595.47;6277959;28;20056;-69
2023/05/14 08:06:59;;;;;;;2.53;1.95;;;;;;;15.40;81.19;101599.06;6272115;28;20049;-69
2023/05/14 08:10:00;;;;;;;5.00;1.85;;;;;;;15.44;80.48;101596.13;6254000;28;20050;-69
2023/05/14 08:13:03;;;;;;;9.63;2.33;;;;;;;15.45;81.55;101594.34;6272680;28;20076;-70
2023/05/14 08:16:06;;;;;;;3.90;2.22;;;;;;;15.55;79.53;101594.63;6263632;28;20462;-70
2023/05/14 08:19:07;;;;;;;3.35;2.55;;;;;;;15.65;81.12;101593.16;6258402;28;20053;-70
2023/05/14 08:22:09;;;;;;;2.42;1.77;;;;;;;15.77;78.74;101600.38;6249559;28;20054;-70
2023/05/14 08:25:10;;;;;;;2.20;1.80;;;;;;;15.81;79.13;101593.94;6252707;28;20053;-70
2023/05/14 08:28:13;;;;;;;2.22;1.88;;;;;;;15.86;77.14;101596.28;6253286;28;20474;-70
2023/05/14 08:31:15;;;;;;;2.08;1.60;;;;;;;16.04;76.44;101589.00;6270401;28;20053;-70
2023/05/14 08:34:16;;;;;;;3.30;2.20;;;;;;;16.06;75.21;101587.09;6262928;28;20056;-70
2023/05/14 08:37:17;;;;;;;6.18;1.85;;;;;;;16.16;75.04;101590.84;6267154;28;20434;-70
2023/05/14 08:40:19;;;;;;;2.85;1.73;;;;;;;16.16;75.63;101582.91;6256002;28;20618;-70
2023/05/14 08:43:25;;;;;;;3.17;2.17;;;;;;;16.18;74.81;101575.72;6257501;28;20049;-70
2023/05/14 08:46:30;;;;;;;1.88;1.65;;;;;;;16.27;75.62;101574.28;6253520;28;20042;-70
2023/05/14 08:49:40;;;;;;;2.58;1.73;;;;;;;16.29;73.03;101575.88;6254468;28;20052;-70
2023/05/14 08:52:41;;;;;;;2.33;1.80;;;;;;;16.31;73.41;101576.63;6247159;28;20597;-70
2023/05/14 08:55:43;;;;;;;3.55;1.73;;;;;;;16.55;72.84;101570.69;6251542;28;20054;-70
2023/05/14 08:58:46;;;;;;;2.60;1.80;;;;;;;16.61;74.50;101579.09;6244841;28;20049;-70
2023/05/14 09:01:48;;;;;;;2.33;1.70;;;;;;;16.59;72.14;101565.06;6260009;28;20057;-70
2023/05/14 09:04:55;;;;;;;3.90;2.08;;;;;;;16.63;71.84;101566.59;6248365;28;20054;-70
2023/05/14 09:07:56;;;;;;;1.88;1.67;;;;;;;16.71;71.55;101560.75;6248925;28;20342;-70
2023/05/14 09:10:58;;;;;;;3.85;2.13;;;;;;;16.84;70.60;101560.81;6247351;28;20053;-70
2023/05/14 09:14:00;;;;;;;2.95;1.85;;;;;;;16.94;71.96;101565.44;6259602;28;20045;-70
2023/05/14 09:17:02;;;;;;;2.60;1.83;;;;;;;17.01;68.97;101554.38;6256170;28;20434;-70
2023/05/14 09:20:04;;;;;;;8.27;2.10;;;;;;;17.12;69.35;101557.16;6251535;28;20052;-70
2023/05/14 09:23:05;;;;;;;3.78;2.03;;;;;;;17.14;67.26;101550.81;6252037;28;20049;-70
2023/05/14 09:26:07;;;;;;;4.35;2.15;;;;;;;17.10;68.34;101546.66;6256778;28;20057;-71
2023/05/14 09:29:09;;;;;;;2.78;1.77;;;;;;;17.13;68.98;101550.91;6254791;28;20358;-70
2023/05/14 09:32:11;;;;;;;2.30;1.60;;;;;;;17.15;70.59;101541.03;6249992;28;20053;-69
2023/05/14 09:35:16;;;;;;;2.47;1.92;;;;;;;17.29;68.96;101540.91;6262780;28;20061;-70
2023/05/14 09:38:17;;;;;;;2.10;1.50;;;;;;;17.38;67.64;101539.44;6257645;28;20096;-69
2023/05/14 09:41:21;;;;;;;4.15;1.90;;;;;;;17.47;68.14;101533.47;6263787;28;20045;-69
2023/05/14 09:44:24;;;;;;;1.98;1.75;;;;;;;17.57;65.87;101523.06;6248661;28;20083;-69
2023/05/14 09:47:26;;;;;;;3.17;1.90;;;;;;;17.61;64.31;101524.53;6259275;28;20053;-69
2023/05/14 09:50:27;;;;;;;3.88;1.95;;;;;;;17.68;65.77;101531.13;6258008;28;20130;-69
2023/05/14 09:53:29;;;;;;;2.30;1.63;;;;;;;17.71;65.10;101520.28;6248028;28;20053;-69
2023/05/14 09:56:32;;;;;;;3.25;1.85;;;;;;;17.77;64.25;101519.03;6244149;28;20053;-70
2023/05/14 09:59:35;;;;;;;5.57;2.10;;;;;;;17.90;64.37;101517.19;6250370;28;20068;-70
2023/05/14 10:02:39;;;;;;;2.30;1.60;;;;;;;18.06;64.07;101511.63;6251429;28;20468;-70
2023/05/14 10:05:42;;;;;;;2.88;1.75;;;;;;;18.05;63.84;101509.91;6249341;28;20457;-70
2023/05/14 10:08:44;;;;;;;2.83;1.90;;;;;;;18.10;63.58;101508.63;6255897;28;20072;-71
2023/05/14 10:11:52;;;;;;;5.53;2.03;;;;;;;18.06;64.79;101512.47;6271311;28;20053;-71
2023/05/14 10:14:57;;;;;;;4.30;2.00;;;;;;;18.23;63.33;101511.25;6246088;28;20476;-70
2023/05/14 10:18:03;;;;;;;2.30;1.88;;;;;;;18.24;64.39;101512.94;6249884;28;20068;-70
2023/05/14 10:21:06;;;;;;;2.42;1.85;;;;;;;18.17;63.20;101503.72;6253300;28;20056;-70
2023/05/14 10:24:09;;;;;;;2.38;1.75;;;;;;;18.02;63.88;101503.00;6269182;28;20047;-70
2023/05/14 10:27:11;;;;;;;2.53;1.83;;;;;;;18.07;65.48;101506.16;6261160;28;20458;-70
2023/05/14 10:30:14;;;;;;;2.42;1.95;;;;;;;18.16;62.51;101499.34;6243733;28;20477;-70
2023/05/14 10:33:17;;;;;;;5.35;2.00;;;;;;;18.04;62.64;101506.41;6247129;28;20052;-70
2023/05/14 10:36:22;;;;;;;2.60;1.90;;;;;;;18.05;65.65;101501.94;6244251;28;20046;-70
2023/05/14 10:39:23;;;;;;;3.63;1.90;;;;;;;18.04;65.46;101495.78;6246939;28;20042;-70
2023/05/14 10:42:27;;;;;;;3.00;1.95;;;;;;;18.30;66.72;101490.34;6252840;28;20052;-70
2023/05/14 10:45:32;;;;;;;2.60;2.00;;;;;;;18.27;65.13;101485.25;6255491;28;20049;-71
2023/05/14 10:48:34;;;;;;;4.10;2.08;;;;;;;18.41;63.92;101490.41;6270485;28;20048;-71
2023/05/14 10:51:36;;;;;;;2.38;1.70;;;;;;;18.66;61.93;101486.72;6254594;28;20456;-71
2023/05/14 10:54:37;;;;;;;3.25;1.90;;;;;;;18.87;61.55;101482.47;6255339;28;20045;-71
2023/05/14 10:57:40;;;;;;;3.95;1.60;;;;;;;18.97;61.92;101482.63;6246289;28;20042;-71
2023/05/14 11:00:47;;;;;;;3.25;1.65;;;;;;;18.93;60.55;101479.34;6254371;28;20060;-71
2023/05/14 11:03:54;;;;;;;2.13;1.75;;;;;;;19.09;57.40;101465.69;6261021;28;20433;-72
2023/05/14 11:06:57;;;;;;;4.03;1.98;;;;;;;19.25;58.66;101470.66;6250839;28;20050;-72
2023/05/14 11:10:01;;;;;;;2.85;2.15;;;;;;;19.48;58.61;101469.72;6243395;28;20053;-72
2023/05/14 11:13:02;;;;;;;3.55;2.00;;;;;;;19.60;57.83;101467.03;6247352;28;20115;-72
2023/05/14 11:16:06;;;;;;;2.17;1.52;;;;;;;19.76;54.59;101468.38;6246695;28;20060;-71
2023/05/14 11:19:07;;;;;;;1.70;1.50;;;;;;;19.72;53.75;101450.94;6241927;28;20052;-71
2023/05/14 11:22:09;;;;;;;1.85;1.58;;;;;;;19.88;54.65;101455.88;6248085;28;20362;-71
2023/05/14 11:25:13;;;;;;;2.03;1.73;;;;;;;20.05;50.96;101446.50;6245995;28;20045;-71
2023/05/14 11:28:14;;;;;;;2.25;1.67;;;;;;;20.19;52.32;101443.53;6244261;28;20378;-71
2023/05/14 11:31:17;;;;;;;2.25;1.52;;;;;;;20.21;55.71;101435.38;6255202;28;20488;-71
2023/05/14 11:34:19;;;;;;;2.53;1.58;;;;;;;20.31;52.90;101431.00;6242236;28;20514;-71
2023/05/14 11:37:20;;;;;;;3.00;1.98;;;;;;;20.41;52.17;101425.72;6252044;28;20042;-71
2023/05/14 11:40:22;;;;;;;1.77;1.60;;;;;;;20.51;50.07;101424.00;6251344;28;21809;-71
2023/05/14 11:43:23;;;;;;;4.43;2.13;;;;;;;20.48;51.25;101433.13;6256281;28;20049;-71
2023/05/14 11:46:28;;;;;;;3.25;1.90;;;;;;;20.67;51.52;101431.56;6252114;28;20138;-71
2023/05/14 11:49:30;;;;;;;2.38;1.63;;;;;;;20.96;52.62;101416.53;6254318;28;20054;-71
2023/05/14 11:52:37;;;;;;;2.25;1.77;;;;;;;21.26;48.61;101420.22;6266075;28;20468;-71
2023/05/14 11:55:38;;;;;;;1.52;1.42;;;;;;;21.30;43.14;101413.59;6274216;28;20042;-71
2023/05/14 11:58:40;;;;;;;1.90;1.60;;;;;;;21.07;50.75;101414.75;6265460;28;20048;-71
2023/05/14 12:01:44;;;;;;;3.15;1.88;;;;;;;21.14;49.47;101411.44;6252955;28;20068;-71
2023/05/14 12:04:50;;;;;;;3.28;1.85;;;;;;;21.52;49.33;101416.09;6276055;28;20056;-71
2023/05/14 12:07:52;;;;;;;3.45;1.63;;;;;;;21.69;46.99;101403.03;6267070;28;20203;-71
2023/05/14 12:10:53;;;;;;;3.95;1.55;;;;;;;21.86;48.44;101404.22;6239924;28;20437;-71
2023/05/14 12:13:54;;;;;;;2.53;1.50;;;;;;;21.98;45.61;101395.91;6237878;28;20061;-71
2023/05/14 12:16:57;;;;;;;2.30;1.90;;;;;;;22.06;45.14;101395.19;6234348;28;20162;-71
2023/05/14 12:19:58;;;;;;;2.53;1.67;;;;;;;22.01;48.14;101389.41;6235218;28;20354;-71
2023/05/14 12:23:00;;;;;;;1.48;1.38;;;;;;;22.18;46.74;101380.72;6240221;28;20052;-72
2023/05/14 12:26:04;;;;;;;2.35;1.50;;;;;;;22.25;45.57;101378.31;6237796;28;20358;-71
2023/05/14 12:29:06;;;;;;;2.20;1.60;;;;;;;22.39;44.09;101385.06;6248053;28;20041;-72
2023/05/14 12:32:09;;;;;;;2.33;1.63;;;;;;;22.51;44.30;101389.28;6239060;28;20077;-71
2023/05/14 12:35:11;;;;;;;6.70;1.50;;;;;;;22.51;41.94;101384.75;6252377;28;20054;-71
2023/05/14 12:38:12;;;;;;;2.40;1.63;;;;;;;22.54;42.39;101379.13;6257654;28;20041;-72
2023/05/14 12:41:13;;;;;;;4.15;1.45;;;;;;;22.64;42.91;101371.06;6244408;28;20361;-71
2023/05/14 12:44:15;;;;;;;1.73;1.60;;;;;;;22.93;43.26;101360.25;6255907;28;20049;-72
2023/05/14 12:47:17;;;;;;;3.30;1.80;;;;;;;23.10;40.37;101363.16;6249857;28;20057;-72
2023/05/14 12:50:19;;;;;;;5.03;1.88;;;;;;;23.25;45.80;101354.47;6250287;28;20053;-72
2023/05/14 12:53:21;;;;;;;2.70;1.83;;;;;;;23.36;43.39;101353.44;6258919;28;20053;-72
2023/05/14 12:56:27;;;;;;;4.00;2.15;;;;;;;23.26;43.16;101341.94;6278052;28;20056;-72
2023/05/14 12:59:28;;;;;;;5.35;2.30;;;;;;;23.36;43.17;101350.75;6273680;28;20079;-72
2023/05/14 13:02:30;;;;;;;3.10;1.70;;;;;;;23.55;43.58;101337.22;6247618;28;20060;-71
2023/05/14 13:05:32;;;;;;;4.45;2.13;;;;;;;23.69;43.04;101333.19;6257481;28;20049;-71
2023/05/14 13:08:33;;;;;;;2.42;1.48;;;;;;;23.76;42.21;101336.97;6264128;28;20041;-71
2023/05/14 13:11:35;;;;;;;4.10;2.30;;;;;;;23.72;39.45;101337.41;6252916;28;20049;-72
2023/05/14 13:14:36;;;;;;;5.18;2.25;;;;;;;23.97;39.67;101320.53;6269910;28;20041;-71
2023/05/14 13:17:40;;;;;;;3.03;2.22;;;;;;;24.03;43.32;101319.09;6243815;28;20041;-72
2023/05/14 13:20:41;;;;;;;5.45;1.58;;;;;;;24.03;38.83;101317.22;6246783;28;20053;-72
2023/05/14 13:23:42;;;;;;;2.25;1.67;;;;;;;24.17;39.82;101323.03;6245675;28;20064;-72
2023/05/14 13:26:44;;;;;;;3.22;1.77;;;;;;;23.98;38.28;101316.84;6248502;28;20052;-71
2023/05/14 13:29:45;;;;;;;2.55;1.95;;;;;;;24.10;39.69;101313.91;6245993;28;20060;-71
2023/05/14 13:32:48;;;;;;;1.83;1.58;;;;;;;24.19;40.07;101312.97;6251908;28;20057;-72
2023/05/14 13:35:50;;;;;;;1.58;1.48;;;;;;;24.26;38.29;101322.09;6255438;28;20056;-72
2023/05/14 13:38:51;;;;;;;2.95;1.90;;;;;;;24.21;38.75;101317.22;6260171;28;20349;-72
2023/05/14 13:41:55;;;;;;;1.65;1.40;;;;;;;23.99;40.23;101318.53;6250805;28;20055;-72
2023/05/14 13:44:57;;;;;;;2.78;1.65;;;;;;;24.23;39.30;101304.44;6276798;28;20348;-72
2023/05/14 13:47:59;;;;;;;2.28;1.60;;;;;;;23.97;39.75;101301.72;6259555;28;20453;-72
2023/05/14 13:51:01;;;;;;;1.55;1.45;;;;;;;23.91;37.73;101297.00;6257929;28;20060;-72
2023/05/14 13:54:02;;;;;;;2.33;1.60;;;;;;;23.63;40.43;101296.22;6249275;28;20349;-72
2023/05/14 13:57:04;;;;;;;5.68;3.00;;;;;;;23.77;41.24;101298.38;6251122;28;20203;-72
2023/05/14 14:00:07;;;;;;;2.35;1.40;;;;;;;24.03;39.84;101293.06;6253055;28;20107;-72
2023/05/14 14:03:10;;;;;;;2.38;1.80;;;;;;;24.13;39.34;101282.22;6251249;28;20056;-72